AV082 Weather Reports


Display with metric or nautical units.
time (UTC)temp
F
wind
direction
speed
MPH
gust
MPH
rain 1hr
in
rain 24hr
in
rain mn
in
humidity
%
barometer
mb
20210921165003 87 298 1.0 5.0 0.00 0.04 0.04 100 1018.4
20210921164004 89 240 2.0 3.0 0.00 0.04 0.04 100 1018.5
20210921162003 87 274 1.0 6.0 0.00 0.04 0.04 100 1018.6
20210921161004 88 105 1.0 3.0 0.00 0.04 0.04 100 1018.6
20210921160003 88 106 2.0 3.0 0.00 0.04 0.04 100 1018.6
20210921155003 87 307 1.0 3.0 0.00 0.04 0.04 100 1018.7
20210921153016 83 351 0.0 1.0 0.00 0.04 0.04 100 1018.9
20210921152003 83 306 1.0 2.0 0.00 0.04 0.04 100 1018.8
20210921145003 83 353 2.0 3.0 0.00 0.04 0.04 100 1018.9
20210921143004 83 230 3.0 5.0 0.00 0.04 0.04 100 1020.1
20210921141016 80 347 0.0 2.0 0.00 0.04 0.04 100 1020.8
20210921140003 80 290 2.0 2.0 0.00 0.04 0.04 100 1020.8
20210921135004 79 311 0.0 2.0 0.00 0.04 0.04 100 1021.1
20210921134003 79 228 2.0 3.0 0.00 0.04 0.04 100 1021.2
20210921133003 80 273 1.0 2.0 0.00 0.04 0.04 100 1022.2
20210921132003 79 106 1.0 2.0 0.02 0.04 0.04 100 1023.4
20210921131003 78 89 1.0 2.0 0.03 0.04 0.04 100 1024.5
20210921125003 77 355 0.0 2.0 0.04 0.04 0.04 100 1024.1
20210921124003 77 321 0.0 1.0 0.04 0.04 0.04 100 1024.1
20210921123004 76 353 0.0 5.0 0.04 0.04 0.04 100 1024.1
20210921121003 76 274 2.0 5.0 0.01 0.01 0.01 100 1023.9
20210921112003 76 347 0.0 1.0 0.00 0.00 0.00 100 1023.5
20210921110005 76 355 1.0 3.0 0.00 0.00 0.00 100 1023.1
20210921105005 76 354 0.0 3.0 0.00 0.00 0.00 100 1023.1
20210921103003 75 350 0.0 2.0 0.00 0.00 0.00 100 1022.7
20210921102003 75 351 1.0 3.0 0.00 0.00 0.00 100 1022.7
20210921095011 75 352 0.0 2.0 0.00 0.00 0.00 100 1022.2
20210921093005 75 352 0.0 2.0 0.00 0.01 0.00 100 1022.0
20210921092011 75 34 1.0 2.0 0.00 0.01 0.00 100 1022.0
20210921091009 75 357 0.0 0.0 0.00 0.01 0.00 100 1021.9
20210921090003 75 352 0.0 1.0 0.00 0.01 0.00 100 1021.8
20210921085005 75 354 1.0 3.0 0.00 0.01 0.00 100 1021.7
20210921083005 75 347 0.0 1.0 0.00 0.01 0.00 100 1021.5
20210921082003 75 38 1.0 2.0 0.00 0.01 0.00 100 1021.4
20210921080004 75 343 0.0 1.0 0.00 0.01 0.00 100 1021.3
20210921075004 75 75 0.0 1.0 0.00 0.01 0.00 100 1021.3
20210921073003 75 27 1.0 3.0 0.00 0.01 0.00 100 1021.2
20210921071003 75 4 2.0 3.0 0.00 0.01 0.00 100 1021.0
20210921070003 75 351 2.0 3.0 0.00 0.01 0.00 100 1020.9
20210921065004 75 46 1.0 2.0 0.00 0.01 0.00 100 1020.8
20210921064003 75 352 0.0 2.0 0.00 0.01 0.00 100 1020.8
20210921063011 76 352 0.0 2.0 0.00 0.01 0.00 100 1020.7
20210921062003 76 3 1.0 2.0 0.00 0.01 0.00 100 1020.4
20210921061006 76 54 1.0 3.0 0.00 0.01 0.00 100 1020.1
20210921060003 76 353 0.0 1.0 0.00 0.01 0.00 100 1020.4
20210921055003 76 353 0.0 1.0 0.00 0.01 0.00 100 1020.3
20210921052004 77 348 0.0 2.0 0.00 0.01 0.00 100 1020.2
20210921051007 77 318 1.0 2.0 0.00 0.01 0.00 100 1020.3
20210921045019 77 353 1.0 3.0 0.00 0.01 0.01 100 1020.6
20210921044004 77 355 1.0 1.0 0.00 0.01 0.01 100 1020.7
20210921043006 77 44 0.0 2.0 0.00 0.01 0.01 100 1020.6
20210921042015 77 348 1.0 2.0 0.00 0.01 0.01 100 1020.6
20210921041003 77 187 0.0 2.0 0.00 0.01 0.01 100 1020.6
20210921040004 77 335 0.0 2.0 0.00 0.01 0.01 100 1020.7
20210921035017 77 18 1.0 2.0 0.00 0.01 0.01 100 1020.9
20210921034004 77 353 1.0 3.0 0.00 0.01 0.01 100 1021.0
20210921033004 77 35 1.0 2.0 0.00 0.01 0.01 100 1021.1
20210921032005 77 24 1.0 3.0 0.00 0.01 0.01 100 1021.5
20210921030010 77 2 2.0 3.0 0.00 0.01 0.01 100 1021.6
20210921020004 76 350 0.0 0.0 0.00 0.02 0.01 100 1019.2
20210921014004 76 352 0.0 0.0 0.00 0.04 0.01 100 1018.5
20210921011016 77 311 0.0 2.0 0.00 0.06 0.01 100 1018.0
20210921010003 77 311 2.0 6.0 0.00 0.06 0.01 100 1017.0
20210921005004 78 354 0.0 0.0 0.00 0.07 0.01 100 1016.6
20210921003007 78 354 0.0 0.0 0.00 0.07 0.01 100 1015.9
20210921001006 79 354 0.0 0.0 0.00 0.07 0.01 100 1015.9
20210921000002 80 354 0.0 0.0 0.00 0.07 0.01 100 1015.3
20210920235004 81 353 0.0 0.0 0.00 0.07 0.01 100 1015.0
20210920233003 84 353 0.0 0.0 0.00 0.07 0.01 100 1015.0
20210920231023 86 342 0.0 0.0 0.00 0.07 0.01 100 1015.1
20210920230003 87 349 0.0 3.0 0.00 0.07 0.01 100 1015.1
20210920222006 88 205 3.0 6.0 0.00 0.08 0.01 100 1014.6
20210920221003 88 128 3.0 5.0 0.00 0.08 0.01 100 1014.6
20210920220007 88 195 3.0 5.0 0.00 0.08 0.01 100 1014.5
20210920215006 88 183 3.0 5.0 0.00 0.09 0.01 100 1014.5
20210920213005 88 217 3.0 8.0 0.00 0.15 0.01 100 1014.5
20210920204007 89 166 3.0 7.0 0.00 0.15 0.01 100 1014.7
20210920203003 90 176 3.0 6.0 0.00 0.15 0.01 100 1014.7
20210920202015 90 297 3.0 5.0 0.00 0.15 0.01 100 1014.7
20210920201004 90 147 2.0 5.0 0.00 0.15 0.01 100 1014.8
20210920195003 90 215 4.0 7.0 0.00 0.15 0.01 100 1014.8
20210920194004 89 252 3.0 6.0 0.00 0.15 0.01 100 1014.9
20210920193004 89 230 3.0 9.0 0.00 0.15 0.01 100 1015.0
20210920191003 90 236 4.0 7.0 0.00 0.15 0.01 100 1015.4
20210920182011 87 148 5.0 7.0 0.00 0.15 0.01 100 1016.2
20210920181005 87 162 3.0 7.0 0.00 0.15 0.01 100 1016.4
20210920175004 85 94 5.0 7.0 0.00 0.15 0.01 100 1016.7
20210920174008 85 208 3.0 6.0 0.00 0.15 0.01 100 1016.8